Terminal Aerodrome Forecast
Issued by NWS

Home | Current Version | Previous Version | Text Only | Print | Product List | Glossary Off
Versions: 1 2 3 4 5 6 7 8 9 10 11 12 13 14 15 16 17

000
FTUS43 KGRB 261100
TAFAUW
TAF
KAUW 261130Z 2612/2712 23004KT P6SM BKN006 OVC015
      TEMPO 2612/2615 4SM BR BKN004
     FM261500 27008KT P6SM BKN015 BKN040
      TEMPO 2615/2619 SCT020 BKN050
     FM261900 29008G15KT P6SM SCT050 SCT120
     FM270200 23005KT P6SM SCT050 BKN100 PROB30 2706/2712 5SM -SHRA
      BR BKN050=

USA.gov is the U.S. government's official web portal to all federal, state and local government web resources and services.